Time;durP1;ratioP1;P1;durP2;ratioP2;P2;SDS_P1;SDS_P2;PMS_P1;PMS_P2;Temp;Humidity;BMP_temperature;BMP_pressure;BME280_temperature;BME280_humidity;BME280_pressure;Samples;Min_cycle;Max_cycle;Signal;HPM_P1;HPM_P2
2023/05/08 06:33:01;;;;;;;22.10;15.55;;;16.10;99.90;;;;;;6176395;23;19923;-76
2023/05/08 06:36:05;;;;;;;22.20;15.55;;;16.10;99.90;;;;;;6107085;29;20203;-77
2023/05/08 06:39:06;;;;;;;;;;;16.20;99.90;;;;;;6121113;29;20129;-77
2023/05/08 06:42:08;;;;;;;22.30;15.63;;;16.20;99.90;;;;;;6112887;29;19930;-76
2023/05/08 06:45:10;;;;;;;23.90;15.52;;;16.00;99.90;;;;;;6108483;29;20051;-78
2023/05/08 06:48:14;;;;;;;21.30;15.00;;;15.90;99.90;;;;;;6106320;29;20066;-78
2023/05/08 06:51:15;;;;;;;27.08;16.60;;;16.00;99.90;;;;;;6127363;29;20164;-76
2023/05/08 06:54:17;;;;;;;22.05;15.18;;;15.80;99.90;;;;;;6127455;29;20048;-75
2023/05/08 06:57:19;;;;;;;19.70;14.60;;;15.90;99.90;;;;;;6127550;29;20047;-77
2023/05/08 07:00:21;;;;;;;19.67;13.77;;;15.90;99.90;;;;;;6128163;29;20074;-78
2023/05/08 07:03:25;;;;;;;20.30;14.38;;;16.00;99.90;;;;;;6142646;29;20052;-78
2023/05/08 07:06:27;;;;;;;18.80;13.98;;;15.90;99.90;;;;;;6143700;29;20048;-76
2023/05/08 07:09:29;;;;;;;19.05;14.00;;;16.10;99.90;;;;;;6146702;29;20545;-76
2023/05/08 07:12:31;;;;;;;23.42;14.07;;;16.20;99.90;;;;;;6145573;29;20066;-76
2023/05/08 07:15:32;;;;;;;20.58;15.38;;;16.20;99.90;;;;;;6132725;29;20056;-76
2023/05/08 07:18:36;;;;;;;18.33;14.02;;;16.20;99.90;;;;;;6104991;29;20056;-76
2023/05/08 07:21:38;;;;;;;19.35;14.05;;;16.30;99.90;;;;;;6124825;29;20056;-75
2023/05/08 07:24:40;;;;;;;25.40;16.70;;;16.30;99.90;;;;;;6130265;29;20058;-78
2023/05/08 07:27:42;;;;;;;18.67;14.25;;;16.20;99.90;;;;;;6125201;29;20055;-75
2023/05/08 07:30:44;;;;;;;22.65;15.55;;;16.20;99.90;;;;;;6131856;28;20509;-75
2023/05/08 07:33:48;;;;;;;20.25;14.55;;;16.00;99.90;;;;;;6131749;29;20106;-75
2023/05/08 07:36:49;;;;;;;20.05;14.68;;;16.10;99.90;;;;;;6131649;29;20043;-75
2023/05/08 07:39:51;;;;;;;18.17;13.00;;;16.20;99.90;;;;;;6131381;29;20607;-75
2023/05/08 07:42:53;;;;;;;17.23;12.95;;;16.20;99.90;;;;;;6131283;29;20052;-74
2023/05/08 07:45:55;;;;;;;18.65;13.75;;;16.20;99.90;;;;;;6123847;29;20043;-75
2023/05/08 07:48:58;;;;;;;21.90;15.75;;;16.20;99.90;;;;;;6131371;29;20055;-77
2023/05/08 07:52:00;;;;;;;22.25;15.65;;;16.20;99.90;;;;;;6131501;29;20051;-76
2023/05/08 07:55:02;;;;;;;19.60;13.85;;;16.20;99.90;;;;;;6131444;29;20047;-76
2023/05/08 07:58:04;;;;;;;19.88;15.25;;;16.20;99.90;;;;;;6132263;29;20054;-75
2023/05/08 08:01:06;;;;;;;19.10;14.65;;;16.20;99.90;;;;;;6136509;29;20059;-76
2023/05/08 08:04:09;;;;;;;20.20;14.68;;;16.20;99.90;;;;;;6137414;29;20058;-77
2023/05/08 08:07:11;;;;;;;16.95;13.50;;;16.20;99.90;;;;;;6139869;29;20058;-76
2023/05/08 08:10:13;;;;;;;14.60;11.70;;;16.30;99.90;;;;;;6131233;29;20395;-75
2023/05/08 08:13:16;;;;;;;16.45;11.95;;;16.20;99.90;;;;;;6134496;29;20055;-75
2023/05/08 08:16:18;;;;;;;16.48;12.65;;;16.10;99.90;;;;;;6130154;29;20505;-77
2023/05/08 08:19:21;;;;;;;14.98;11.27;;;16.20;99.90;;;;;;6130570;29;20062;-75
2023/05/08 08:22:23;;;;;;;13.20;10.18;;;16.30;99.90;;;;;;6130368;29;20194;-76
2023/05/08 08:25:26;;;;;;;13.48;9.77;;;16.30;99.90;;;;;;6124785;29;20052;-76
2023/05/08 08:28:28;;;;;;;11.68;9.25;;;16.40;99.90;;;;;;6108513;29;20058;-77
2023/05/08 08:31:30;;;;;;;12.77;9.52;;;16.50;99.90;;;;;;6106639;29;20056;-76
2023/05/08 08:34:34;;;;;;;14.45;10.18;;;16.60;99.90;;;;;;6106446;29;20048;-77
2023/05/08 08:37:36;;;;;;;13.63;8.80;;;16.70;99.90;;;;;;6106517;29;20055;-75
2023/05/08 08:40:42;;;;;;;12.93;8.93;;;16.70;99.90;;;;;;6106559;29;20049;-75
2023/05/08 08:43:44;;;;;;;21.60;11.25;;;16.80;99.90;;;;;;6125357;29;20402;-76
2023/05/08 08:46:52;;;;;;;17.13;9.52;;;16.50;99.90;;;;;;6130069;29;20047;-77
2023/05/08 08:49:58;;;;;;;11.75;9.45;;;16.70;99.90;;;;;;6128716;29;20438;-79
2023/05/08 08:53:08;;;;;;;18.83;9.70;;;16.70;99.90;;;;;;6130293;29;20059;-78
2023/05/08 08:56:11;;;;;;;19.50;12.35;;;16.90;99.90;;;;;;6130353;29;20059;-76
2023/05/08 08:59:15;;;;;;;12.30;8.98;;;16.70;99.90;;;;;;6130031;29;20052;-76
2023/05/08 09:02:21;;;;;;;13.00;8.80;;;17.00;99.90;;;;;;6129310;29;20474;-77
2023/05/08 09:05:25;;;;;;;14.38;9.93;;;17.10;99.90;;;;;;6129740;29;20401;-76
2023/05/08 09:08:27;;;;;;;11.85;8.70;;;17.10;99.90;;;;;;6129386;29;20051;-77
2023/05/08 09:11:29;;;;;;;13.40;9.15;;;17.40;99.90;;;;;;6129651;29;20505;-76
2023/05/08 09:14:31;;;;;;;14.35;10.73;;;17.50;99.90;;;;;;6129428;29;20071;-74
2023/05/08 09:17:33;;;;;;;13.18;10.38;;;17.60;99.90;;;;;;6126207;29;20397;-77
2023/05/08 09:20:37;;;;;;;11.98;8.95;;;17.60;99.90;;;;;;6131816;28;20520;-76
2023/05/08 09:23:55;;;;;;;12.80;9.25;;;17.80;99.90;;;;;;6113402;29;20044;-74
2023/05/08 09:26:57;;;;;;;11.25;7.90;;;17.50;99.90;;;;;;6106552;29;20056;-76
2023/05/08 09:30:02;;;;;;;12.68;8.55;;;17.80;99.90;;;;;;6129235;28;20179;-74
2023/05/08 09:33:05;;;;;;;10.65;8.52;;;17.90;99.90;;;;;;6120085;29;20067;-78
2023/05/08 09:36:26;;;;;;;13.27;8.90;;;18.00;99.90;;;;;;6112586;29;20584;-77
2023/05/08 09:39:28;;;;;;;35.20;10.80;;;18.20;99.90;;;;;;6115796;29;20056;-75
2023/05/08 09:42:38;;;;;;;23.92;9.40;;;18.10;99.90;;;;;;6106327;29;20414;-75
2023/05/08 09:45:40;;;;;;;12.05;9.75;;;18.30;99.90;;;;;;6105416;29;20055;-76
2023/05/08 09:48:44;;;;;;;13.75;8.70;;;17.90;99.90;;;;;;6105932;29;20047;-76
2023/05/08 09:51:54;;;;;;;10.00;7.78;;;18.10;99.90;;;;;;6106113;29;20052;-78
2023/05/08 09:55:00;;;;;;;10.77;7.95;;;18.40;99.90;;;;;;6105025;29;20406;-77
2023/05/08 09:58:03;;;;;;;10.38;7.68;;;18.60;99.90;;;;;;6104669;29;20471;-78
2023/05/08 10:01:04;;;;;;;10.30;7.70;;;18.70;99.90;;;;;;6103622;29;20052;-77
2023/05/08 10:04:06;;;;;;;9.45;7.45;;;18.70;99.90;;;;;;6100421;29;20151;-76
2023/05/08 10:07:09;;;;;;;8.85;7.10;;;18.70;99.90;;;;;;6118710;29;20482;-76
2023/05/08 10:10:11;;;;;;;10.95;8.20;;;18.80;99.90;;;;;;6123487;29;20047;-76
2023/05/08 10:13:13;;;;;;;11.52;8.27;;;18.70;99.90;;;;;;6104512;29;20510;-77
2023/05/08 10:16:18;;;;;;;10.40;8.18;;;18.50;99.90;;;;;;6109554;29;20515;-79
2023/05/08 10:19:22;;;;;;;12.52;8.43;;;18.60;99.90;;;;;;6126532;29;20070;-79
2023/05/08 10:22:26;;;;;;;13.80;9.27;;;18.70;99.90;;;;;;6124163;29;20413;-77
2023/05/08 10:25:33;;;;;;;12.15;8.60;;;18.40;99.90;;;;;;6104153;29;20512;-78
2023/05/08 10:28:42;;;;;;;11.52;8.73;;;18.50;99.90;;;;;;6115418;29;20055;-76
2023/05/08 10:31:46;;;;;;;11.80;8.70;;;18.40;99.90;;;;;;6125856;29;20409;-79
2023/05/08 10:34:53;;;;;;;10.60;7.40;;;18.40;99.90;;;;;;6127819;29;20048;-77
2023/05/08 10:37:57;;;;;;;10.68;7.38;;;18.60;99.90;;;;;;6127583;29;20417;-79
2023/05/08 10:41:01;;;;;;;9.93;7.13;;;18.70;99.90;;;;;;6127829;29;20055;-79
2023/05/08 10:44:03;;;;;;;11.60;8.20;;;18.60;99.90;;;;;;6127486;29;20058;-77
2023/05/08 10:47:14;;;;;;;12.60;8.18;;;18.60;99.90;;;;;;6127873;29;20060;-75
2023/05/08 10:50:33;;;;;;;10.05;7.53;;;18.60;99.90;;;;;;6127416;29;20482;-76
2023/05/08 10:53:44;;;;;;;10.90;7.50;;;18.60;99.90;;;;;;6127816;29;20520;-76
2023/05/08 10:56:46;;;;;;;10.55;7.93;;;18.60;99.90;;;;;;6127536;29;20058;-76
2023/05/08 10:59:48;;;;;;;13.13;9.50;;;18.60;99.90;;;;;;6130917;29;20588;-74
2023/05/08 11:02:50;;;;;;;14.60;9.10;;;18.00;99.90;;;;;;6132429;29;20432;-73
2023/05/08 11:05:53;;;;;;;10.88;8.65;;;18.10;99.90;;;;;;6126818;29;20058;-75
2023/05/08 11:08:56;;;;;;;;;;;18.20;99.90;;;;;;6143012;29;20481;-75
2023/05/08 11:12:11;;;;;;;14.15;10.50;;;18.00;99.90;;;;;;6146718;29;19993;-72
2023/05/08 11:15:13;;;;;;;14.05;9.73;;;18.10;99.90;;;;;;6132255;29;20043;-75
2023/05/08 11:18:17;;;;;;;20.00;10.38;;;18.20;99.90;;;;;;6131652;29;20508;-75
2023/05/08 11:21:21;;;;;;;14.68;11.15;;;18.20;99.90;;;;;;6132299;29;20134;-76
2023/05/08 11:24:35;;;;;;;14.93;10.82;;;18.10;99.90;;;;;;6134502;29;20058;-76
2023/05/08 11:28:11;;;;;;;15.88;11.95;;;18.20;99.90;;;;;;6140398;29;20070;-75
2023/05/08 11:31:13;;;;;;;14.57;10.98;;;18.10;99.90;;;;;;6115895;29;20052;-76
2023/05/08 11:34:45;;;;;;;11.45;8.98;;;18.10;99.90;;;;;;6114070;29;20048;-73
2023/05/08 11:38:19;;;;;;;13.52;10.60;;;18.10;99.90;;;;;;6121912;29;20044;-75
2023/05/08 11:41:24;;;;;;;14.88;11.77;;;18.10;99.90;;;;;;6105365;29;20059;-76
2023/05/08 11:44:27;;;;;;;14.82;11.45;;;18.10;99.90;;;;;;6104932;29;20060;-75
2023/05/08 11:47:37;;;;;;;17.50;12.45;;;18.20;99.90;;;;;;6105066;29;20051;-75
2023/05/08 11:50:39;;;;;;;16.77;12.52;;;18.20;99.90;;;;;;6109939;29;20556;-75
2023/05/08 11:53:43;;;;;;;16.85;12.95;;;18.20;99.90;;;;;;6126763;29;20058;-76
2023/05/08 11:56:51;;;;;;;17.17;13.05;;;18.00;99.90;;;;;;6152132;28;20055;-74
2023/05/08 11:59:54;;;;;;;17.52;13.07;;;18.10;99.90;;;;;;6152035;28;20074;-73
2023/05/08 12:02:55;;;;;;;18.80;14.48;;;17.90;99.90;;;;;;6136283;28;20058;-76
2023/05/08 12:05:59;;;;;;;18.38;15.20;;;18.10;99.90;;;;;;6137240;29;20059;-76
2023/05/08 12:09:03;;;;;;;18.25;14.38;;;18.00;99.90;;;;;;6142967;29;20058;-75
2023/05/08 12:12:06;;;;;;;21.02;15.90;;;18.10;99.90;;;;;;6140733;29;20054;-75
2023/05/08 12:15:10;;;;;;;21.70;17.40;;;18.00;99.90;;;;;;6132937;29;20047;-75
2023/05/08 12:18:12;;;;;;;21.38;16.83;;;17.90;99.90;;;;;;6125235;29;20058;-76
2023/05/08 12:21:15;;;;;;;23.92;18.58;;;18.00;99.90;;;;;;6127900;29;20408;-77
2023/05/08 12:24:21;;;;;;;23.42;17.90;;;17.80;99.90;;;;;;6127501;29;20052;-76
2023/05/08 12:27:25;;;;;;;18.80;15.60;;;18.00;99.90;;;;;;6125871;29;20043;-74
2023/05/08 12:30:29;;;;;;;;;;;18.20;99.90;;;;;;6129134;29;20056;-76
2023/05/08 12:33:31;;;;;;;20.35;15.32;;;18.20;99.90;;;;;;6124504;29;19922;-76
2023/05/08 12:36:36;;;;;;;17.85;15.02;;;18.10;99.90;;;;;;6107365;29;20073;-76
2023/05/08 12:39:44;;;;;;;21.63;17.15;;;18.20;99.90;;;;;;6107763;29;20052;-74
2023/05/08 12:42:50;;;;;;;21.40;17.33;;;18.20;99.90;;;;;;6106931;29;20060;-76
2023/05/08 12:45:52;;;;;;;22.50;16.67;;;18.10;99.90;;;;;;6106986;29;20044;-77
2023/05/08 12:49:01;;;;;;;21.20;15.57;;;18.00;99.90;;;;;;6106550;29;20047;-76
2023/05/08 12:52:06;;;;;;;20.15;16.55;;;18.40;99.90;;;;;;6106798;29;20048;-76
2023/05/08 12:55:22;;;;;;;19.67;15.30;;;18.60;99.90;;;;;;6107257;29;20056;-76
2023/05/08 12:58:27;;;;;;;20.83;15.70;;;18.50;99.90;;;;;;6107600;29;20060;-76
2023/05/08 13:01:29;;;;;;;20.58;16.80;;;18.70;99.90;;;;;;6106934;29;20051;-75
2023/05/08 13:04:37;;;;;;;19.77;17.35;;;18.60;99.90;;;;;;6106675;29;20406;-75
2023/05/08 13:07:39;;;;;;;17.92;15.38;;;18.50;99.90;;;;;;6106473;29;20063;-77
2023/05/08 13:10:49;;;;;;;18.33;15.05;;;18.90;99.90;;;;;;6106978;29;20055;-75
2023/05/08 13:13:52;;;;;;;17.00;15.00;;;19.30;99.90;;;;;;6106668;29;20498;-76
2023/05/08 13:16:54;;;;;;;18.67;14.45;;;19.30;99.90;;;;;;6106354;29;20060;-76
2023/05/08 13:19:56;;;;;;;18.90;15.50;;;19.90;99.90;;;;;;6106158;29;20044;-77
2023/05/08 13:22:57;;;;;;;17.60;14.50;;;20.30;99.90;;;;;;6105737;29;20501;-75
2023/05/08 13:26:00;;;;;;;16.75;14.27;;;20.70;99.90;;;;;;6106608;29;20055;-76
2023/05/08 13:29:03;;;;;;;18.67;14.50;;;21.20;99.90;;;;;;6106092;29;20494;-76
2023/05/08 13:32:05;;;;;;;16.17;13.00;;;21.40;99.90;;;;;;6106490;29;20048;-76
2023/05/08 13:35:08;;;;;;;14.25;12.30;;;21.70;99.90;;;;;;6105558;29;20247;-78
2023/05/08 13:38:10;;;;;;;17.17;12.55;;;21.90;99.90;;;;;;6107188;29;20052;-77
2023/05/08 13:41:12;;;;;;;15.32;12.32;;;21.40;99.90;;;;;;6107827;29;20059;-77
2023/05/08 13:44:15;;;;;;;16.33;13.07;;;21.70;99.90;;;;;;6107743;29;20064;-75
2023/05/08 13:47:17;;;;;;;16.55;13.65;;;21.70;99.90;;;;;;6107954;29;20048;-75
2023/05/08 13:50:20;;;;;;;16.48;13.80;;;21.30;99.90;;;;;;6108468;29;20425;-77
2023/05/08 13:53:22;;;;;;;16.50;14.02;;;21.30;99.90;;;;;;6111801;29;20062;-76
2023/05/08 13:56:24;;;;;;;14.25;12.40;;;21.30;99.90;;;;;;6112938;29;20525;-76
2023/05/08 13:59:30;;;;;;;13.93;12.30;;;22.00;99.90;;;;;;6112272;29;20070;-76
2023/05/08 14:02:31;;;;;;;14.48;11.15;;;22.70;99.90;;;;;;6112435;29;20048;-77
2023/05/08 14:05:34;;;;;;;13.95;10.98;;;22.80;99.90;;;;;;6110819;29;20055;-76
2023/05/08 14:08:36;;;;;;;13.55;11.07;;;23.20;99.90;;;;;;6111615;29;20058;-75
2023/05/08 14:11:38;;;;;;;11.70;9.75;;;23.00;99.90;;;;;;6113348;29;20059;-77
2023/05/08 14:14:41;;;;;;;10.52;8.38;;;23.00;99.90;;;;;;6115184;29;20052;-78
2023/05/08 14:17:43;;;;;;;;;;;23.40;99.90;;;;;;6123719;29;20108;-75
2023/05/08 14:20:44;;;;;;;12.82;6.78;;;23.70;99.90;;;;;;6120999;29;19995;-76
2023/05/08 14:23:46;;;;;;;7.18;5.65;;;23.80;99.60;;;;;;6111215;29;20394;-75
2023/05/08 14:26:48;;;;;;;6.88;5.78;;;23.90;99.30;;;;;;6106899;29;20056;-77
2023/05/08 14:29:53;;;;;;;8.30;5.82;;;24.10;99.90;;;;;;6106494;29;20486;-77
2023/05/08 14:32:54;;;;;;;7.63;5.63;;;24.70;98.10;;;;;;6107612;29;20391;-76
2023/05/08 14:35:56;;;;;;;7.13;6.25;;;25.10;97.00;;;;;;6125557;29;20050;-75
2023/05/08 14:38:59;;;;;;;8.88;6.22;;;25.20;96.50;;;;;;6130829;29;20084;-76
2023/05/08 14:42:01;;;;;;;7.15;5.72;;;25.40;95.40;;;;;;6146113;29;20075;-77
2023/05/08 14:45:06;;;;;;;7.57;5.75;;;25.40;95.20;;;;;;6136460;29;20038;-75
2023/05/08 14:48:08;;;;;;;6.55;5.80;;;25.40;93.80;;;;;;6146544;29;20086;-76
2023/05/08 14:51:11;;;;;;;8.43;5.50;;;25.10;95.30;;;;;;6145015;29;20050;-79
2023/05/08 14:54:12;;;;;;;6.55;4.88;;;24.70;97.00;;;;;;6128341;29;20047;-80
2023/05/08 14:57:15;;;;;;;9.35;5.25;;;25.40;95.20;;;;;;6130649;28;20051;-78
2023/05/08 15:00:20;;;;;;;6.90;5.40;;;25.70;94.00;;;;;;6125401;29;20058;-78
2023/05/08 15:03:21;;;;;;;6.00;4.70;;;26.20;93.20;;;;;;6124594;28;20052;-76
2023/05/08 15:06:27;;;;;;;6.32;4.35;;;26.50;91.60;;;;;;6122171;29;20052;-77
2023/05/08 15:09:29;;;;;;;6.28;4.82;;;26.60;92.60;;;;;;6111923;29;20052;-79
2023/05/08 15:12:31;;;;;;;8.43;4.93;;;27.10;91.20;;;;;;6138796;29;20051;-77
2023/05/08 15:15:34;;;;;;;7.10;5.60;;;26.50;91.30;;;;;;6142453;29;20103;-77
2023/05/08 15:18:37;;;;;;;8.32;6.00;;;25.80;91.10;;;;;;6138024;29;20077;-77
2023/05/08 15:21:39;;;;;;;;;;;25.40;91.80;;;;;;6124602;29;20051;-76
2023/05/08 15:24:41;;;;;;;12.82;5.00;;;25.20;92.40;;;;;;6124756;29;20427;-78
2023/05/08 15:27:43;;;;;;;6.17;4.50;;;25.90;92.60;;;;;;6119021;29;20379;-76
2023/05/08 15:30:47;;;;;;;6.18;4.85;;;26.60;91.20;;;;;;6121778;29;20813;-78
2023/05/08 15:33:49;;;;;;;6.13;4.47;;;26.90;90.10;;;;;;6123507;29;20052;-79
2023/05/08 15:36:51;;;;;;;7.60;4.70;;;26.90;87.40;;;;;;6124132;29;20430;-78
2023/05/08 15:39:53;;;;;;;6.60;4.20;;;27.20;86.50;;;;;;6124751;29;20063;-78
2023/05/08 15:42:56;;;;;;;6.47;4.13;;;26.90;86.50;;;;;;6120504;29;20410;-77
2023/05/08 15:45:59;;;;;;;6.32;4.35;;;26.90;85.90;;;;;;6110344;29;20047;-77
2023/05/08 15:49:01;;;;;;;6.70;4.80;;;27.40;84.40;;;;;;6120006;29;20059;-76
2023/05/08 15:52:03;;;;;;;6.80;5.30;;;27.10;82.70;;;;;;6123093;29;20047;-76
2023/05/08 15:55:06;;;;;;;7.00;4.93;;;27.20;81.40;;;;;;6123864;29;20056;-77
2023/05/08 15:58:08;;;;;;;7.57;4.90;;;28.00;80.80;;;;;;6125612;29;20827;-79
2023/05/08 16:01:11;;;;;;;7.10;5.40;;;27.90;79.30;;;;;;6126750;29;20054;-78
2023/05/08 16:04:13;;;;;;;7.93;5.22;;;28.00;79.50;;;;;;6125216;29;20059;-78
2023/05/08 16:07:15;;;;;;;7.38;5.43;;;28.20;77.60;;;;;;6128223;29;20063;-76
2023/05/08 16:10:17;;;;;;;6.68;5.38;;;27.60;77.50;;;;;;6128738;29;20052;-75
2023/05/08 16:13:19;;;;;;;6.60;5.40;;;27.70;77.60;;;;;;6125754;29;20059;-76
2023/05/08 16:16:22;;;;;;;7.05;5.63;;;27.10;79.80;;;;;;6128276;29;20365;-75
2023/05/08 16:19:24;;;;;;;6.95;5.15;;;26.50;79.80;;;;;;6128220;29;20430;-76
2023/05/08 16:22:26;;;;;;;6.38;5.22;;;26.20;81.80;;;;;;6123363;29;20052;-74
2023/05/08 16:25:28;;;;;;;8.65;4.80;;;25.90;82.40;;;;;;6124900;29;20059;-76
2023/05/08 16:28:29;;;;;;;6.13;4.50;;;25.70;84.40;;;;;;6126663;29;20063;-75
2023/05/08 16:31:33;;;;;;;6.53;5.10;;;25.30;86.20;;;;;;6128753;29;20497;-76
2023/05/08 16:34:35;;;;;;;6.57;4.82;;;25.00;84.30;;;;;;6126649;29;20405;-75
2023/05/08 16:37:37;;;;;;;8.23;5.55;;;24.70;86.30;;;;;;6125435;29;20510;-74
2023/05/08 16:40:40;;;;;;;7.97;4.70;;;24.20;87.00;;;;;;6124531;29;20051;-75
2023/05/08 16:43:42;;;;;;;5.60;4.55;;;24.10;88.90;;;;;;6125599;29;20159;-77
2023/05/08 16:46:45;;;;;;;7.60;5.25;;;23.80;90.20;;;;;;6126786;29;20676;-78
2023/05/08 16:49:47;;;;;;;;;;;23.70;89.70;;;;;;6127583;29;20062;-77
2023/05/08 16:52:49;;;;;;;7.03;5.50;;;23.30;90.30;;;;;;6125223;29;19931;-77
2023/05/08 16:55:50;;;;;;;7.95;5.22;;;22.80;91.00;;;;;;6126666;29;20059;-77
2023/05/08 16:58:52;;;;;;;7.25;5.13;;;22.80;90.90;;;;;;6125191;29;20052;-75
2023/05/08 17:01:56;;;;;;;5.82;4.40;;;22.70;91.10;;;;;;6126904;29;20115;-76
2023/05/08 17:04:58;;;;;;;7.90;5.13;;;22.60;91.40;;;;;;6125829;29;20046;-76
2023/05/08 17:08:00;;;;;;;9.00;5.15;;;22.50;92.00;;;;;;6125535;29;20059;-80
2023/05/08 17:11:02;;;;;;;6.53;4.65;;;22.40;92.20;;;;;;6127371;29;20052;-77
2023/05/08 17:14:04;;;;;;;6.63;4.55;;;22.30;92.70;;;;;;6126699;29;20055;-76
2023/05/08 17:17:07;;;;;;;6.88;4.88;;;22.30;92.90;;;;;;6125724;29;20637;-74
2023/05/08 17:20:11;;;;;;;7.22;4.78;;;22.20;93.20;;;;;;6126525;29;20058;-76
2023/05/08 17:23:13;;;;;;;7.60;4.90;;;22.00;93.20;;;;;;6127123;29;20516;-77
2023/05/08 17:26:15;;;;;;;11.10;5.65;;;22.00;93.10;;;;;;6125544;29;20054;-77
2023/05/08 17:29:17;;;;;;;7.20;5.93;;;21.80;93.10;;;;;;6126140;29;20054;-77
2023/05/08 17:32:20;;;;;;;7.25;5.97;;;21.60;92.90;;;;;;6114139;29;20157;-76
2023/05/08 17:35:22;;;;;;;7.25;5.65;;;21.40;93.30;;;;;;6125727;29;20035;-74
2023/05/08 17:38:24;;;;;;;8.70;6.60;;;21.30;94.00;;;;;;6123445;29;20048;-76
2023/05/08 17:41:26;;;;;;;8.75;5.97;;;21.00;94.40;;;;;;6123772;29;20047;-77
2023/05/08 17:44:28;;;;;;;8.18;6.53;;;21.00;94.40;;;;;;6138520;29;20062;-79
2023/05/08 17:47:31;;;;;;;8.90;6.28;;;20.70;94.10;;;;;;6142049;29;21536;-78
2023/05/08 17:50:38;;;;;;;11.10;7.45;;;20.70;94.50;;;;;;6143139;29;20039;-78
2023/05/08 17:53:40;;;;;;;10.13;7.47;;;20.50;95.30;;;;;;6144403;29;20071;-77
2023/05/08 17:56:43;;;;;;;9.07;6.57;;;20.50;95.20;;;;;;6134337;29;20071;-77
2023/05/08 17:59:44;;;;;;;8.63;7.32;;;20.50;95.70;;;;;;6132166;29;20051;-77
2023/05/08 18:02:47;;;;;;;9.63;6.80;;;20.30;95.80;;;;;;6126011;29;20056;-77
2023/05/08 18:05:49;;;;;;;9.23;6.80;;;20.40;96.20;;;;;;6125573;29;20052;-78
2023/05/08 18:08:51;;;;;;;9.18;7.38;;;20.30;96.10;;;;;;6125663;29;20047;-77
2023/05/08 18:11:54;;;;;;;11.82;7.25;;;20.30;96.30;;;;;;6123990;29;20050;-75
2023/05/08 18:14:58;;;;;;;10.95;7.72;;;20.10;97.40;;;;;;6121121;29;20048;-76
2023/05/08 18:18:01;;;;;;;10.77;8.40;;;20.20;97.40;;;;;;6129902;29;20107;-77
2023/05/08 18:21:03;;;;;;;12.27;8.68;;;20.20;97.00;;;;;;6127079;29;20052;-77
2023/05/08 18:24:06;;;;;;;10.27;7.63;;;19.90;97.10;;;;;;6121418;29;20055;-76
2023/05/08 18:27:08;;;;;;;10.15;7.40;;;19.90;97.80;;;;;;6121127;29;20405;-79
2023/05/08 18:30:11;;;;;;;11.40;7.70;;;19.90;98.00;;;;;;6117874;29;20056;-79
2023/05/08 18:33:14;;;;;;;9.93;7.72;;;19.90;98.50;;;;;;6127035;29;20063;-79
2023/05/08 18:36:16;;;;;;;10.50;7.80;;;19.90;98.70;;;;;;6116463;28;20498;-77
2023/05/08 18:39:18;;;;;;;10.65;7.85;;;19.90;99.50;;;;;;6121703;29;20055;-78
2023/05/08 18:42:22;;;;;;;10.00;7.85;;;19.80;99.70;;;;;;6114789;29;20056;-81
2023/05/08 18:45:24;;;;;;;13.10;8.13;;;19.70;99.90;;;;;;6124974;29;20490;-76
2023/05/08 18:48:28;;;;;;;11.32;8.00;;;19.70;99.90;;;;;;6120859;29;20048;-78
2023/05/08 18:51:30;;;;;;;9.43;7.60;;;19.70;99.90;;;;;;6119061;29;20746;-71
2023/05/08 18:54:32;;;;;;;10.45;8.10;;;19.60;99.90;;;;;;6114613;29;20059;-73
2023/05/08 18:57:37;;;;;;;12.65;9.52;;;19.60;99.90;;;;;;6121012;29;20417;-76
2023/05/08 19:00:39;;;;;;;16.00;10.32;;;19.60;99.90;;;;;;6119553;29;20052;-76
2023/05/08 19:03:42;;;;;;;15.13;11.25;;;19.60;99.90;;;;;;6120881;29;20047;-77
2023/05/08 19:06:44;;;;;;;11.13;8.68;;;19.60;99.90;;;;;;6120682;29;20078;-77
2023/05/08 19:09:46;;;;;;;13.95;9.27;;;19.60;99.90;;;;;;6122186;29;20059;-79
2023/05/08 19:12:49;;;;;;;11.38;8.15;;;19.50;99.90;;;;;;6121156;29;20048;-77
2023/05/08 19:15:52;;;;;;;13.20;8.65;;;19.50;99.90;;;;;;6120335;29;20056;-79
2023/05/08 19:18:56;;;;;;;12.45;8.65;;;19.40;99.90;;;;;;6121878;29;20055;-80
2023/05/08 19:21:58;;;;;;;11.63;8.35;;;19.30;99.90;;;;;;6113113;29;20067;-79
2023/05/08 19:24:59;;;;;;;12.27;8.80;;;19.30;99.90;;;;;;6142770;29;20056;-79
2023/05/08 19:28:02;;;;;;;12.63;8.93;;;19.20;99.90;;;;;;6125335;29;20054;-78
2023/05/08 19:31:04;;;;;;;10.55;8.10;;;19.10;99.90;;;;;;6126686;29;20207;-78
2023/05/08 19:34:08;;;;;;;12.40;9.25;;;19.00;99.90;;;;;;6127231;29;20063;-79
2023/05/08 19:37:09;;;;;;;;;;;19.00;99.90;;;;;;6107408;29;20052;-76
2023/05/08 19:40:14;;;;;;;15.93;8.75;;;19.00;99.90;;;;;;6108351;29;19930;-78
2023/05/08 19:43:17;;;;;;;13.07;8.60;;;19.00;99.90;;;;;;6126317;29;20771;-77
2023/05/08 19:46:19;;;;;;;15.40;9.38;;;18.90;99.90;;;;;;6126102;29;20047;-75
2023/05/08 19:49:23;;;;;;;11.43;8.38;;;18.80;99.90;;;;;;6124248;29;20409;-73
2023/05/08 19:52:25;;;;;;;10.98;8.57;;;18.80;99.90;;;;;;6125440;29;20058;-74
2023/05/08 19:55:26;;;;;;;11.13;9.15;;;18.80;99.90;;;;;;6125540;29;20057;-75
2023/05/08 19:58:28;;;;;;;12.68;8.60;;;18.70;99.90;;;;;;6122079;29;20138;-75
2023/05/08 20:01:30;;;;;;;11.70;8.10;;;18.60;99.90;;;;;;6112789;29;20063;-74
2023/05/08 20:04:33;;;;;;;13.40;8.40;;;18.50;99.90;;;;;;6115481;29;20048;-78
2023/05/08 20:07:35;;;;;;;11.55;8.52;;;18.40;99.90;;;;;;6127946;29;20059;-79
2023/05/08 20:10:37;;;;;;;14.32;10.40;;;18.30;99.90;;;;;;6126815;29;20063;-76
2023/05/08 20:13:39;;;;;;;13.88;10.10;;;18.20;99.90;;;;;;6128251;29;20494;-78
2023/05/08 20:16:41;;;;;;;11.75;8.13;;;18.20;99.90;;;;;;6127394;29;20066;-80
2023/05/08 20:19:44;;;;;;;13.05;8.88;;;18.20;99.90;;;;;;6126629;29;20062;-78
2023/05/08 20:22:46;;;;;;;12.95;9.02;;;18.20;99.90;;;;;;6127712;29;20055;-79
2023/05/08 20:25:48;;;;;;;14.20;9.07;;;18.20;99.90;;;;;;6125489;29;20409;-77
2023/05/08 20:28:50;;;;;;;16.50;10.73;;;18.10;99.90;;;;;;6129464;29;20052;-79
2023/05/08 20:31:53;;;;;;;15.10;8.98;;;18.10;99.90;;;;;;6123974;29;20048;-79
2023/05/08 20:34:56;;;;;;;12.77;9.70;;;18.10;99.90;;;;;;6140182;29;20052;-78
2023/05/08 20:37:58;;;;;;;12.60;8.98;;;18.00;99.90;;;;;;6130391;29;20044;-77
2023/05/08 20:41:00;;;;;;;14.18;8.43;;;18.10;99.90;;;;;;6128795;29;20063;-79
2023/05/08 20:44:02;;;;;;;11.98;8.82;;;18.10;99.90;;;;;;6112039;29;20127;-79
2023/05/08 20:47:04;;;;;;;13.38;8.88;;;18.00;99.90;;;;;;6125059;29;20048;-78
2023/05/08 20:50:09;;;;;;;14.15;8.52;;;18.00;99.90;;;;;;6128970;29;20117;-79
2023/05/08 20:53:11;;;;;;;13.60;9.25;;;18.00;99.90;;;;;;6129202;29;20411;-79
2023/05/08 20:56:14;;;;;;;12.05;9.02;;;18.00;99.90;;;;;;6127615;29;20052;-78
2023/05/08 20:59:17;;;;;;;12.77;8.73;;;17.90;99.90;;;;;;6129595;29;20051;-79
2023/05/08 21:02:19;;;;;;;12.80;8.32;;;17.80;99.90;;;;;;6129842;29;20058;-80
2023/05/08 21:05:22;;;;;;;12.60;8.68;;;17.80;99.90;;;;;;6128942;29;20047;-78
2023/05/08 21:08:25;;;;;;;11.15;8.15;;;17.80;99.90;;;;;;6129977;29;20048;-78
2023/05/08 21:11:27;;;;;;;17.97;9.80;;;17.80;99.90;;;;;;6129894;29;20067;-80
2023/05/08 21:14:28;;;;;;;11.32;8.15;;;17.80;99.90;;;;;;6129047;29;20055;-79
2023/05/08 21:17:30;;;;;;;11.85;8.63;;;17.80;99.90;;;;;;6127242;29;20429;-78
2023/05/08 21:20:34;;;;;;;11.65;8.73;;;17.80;99.90;;;;;;6129312;29;20047;-79
2023/05/08 21:23:35;;;;;;;13.13;9.43;;;17.70;99.90;;;;;;6123062;29;20048;-78
2023/05/08 21:26:37;;;;;;;12.77;8.52;;;17.70;99.90;;;;;;6119380;29;20413;-77
2023/05/08 21:29:39;;;;;;;13.80;10.38;;;17.70;99.90;;;;;;6109471;29;20048;-75
2023/05/08 21:32:41;;;;;;;13.57;9.30;;;17.70;99.90;;;;;;6110669;29;20055;-78
2023/05/08 21:35:45;;;;;;;19.27;11.65;;;17.60;99.90;;;;;;6122006;29;20051;-77
2023/05/08 21:38:47;;;;;;;14.40;10.57;;;17.60;99.90;;;;;;6120985;29;20051;-78
2023/05/08 21:41:49;;;;;;;17.05;11.73;;;17.60;99.90;;;;;;6117045;29;20044;-77
2023/05/08 21:44:51;;;;;;;16.27;11.75;;;17.60;99.90;;;;;;6134045;29;20055;-78
2023/05/08 21:47:53;;;;;;;17.95;11.77;;;17.60;99.90;;;;;;6137276;29;20043;-77
2023/05/08 21:50:56;;;;;;;16.15;11.85;;;17.60;99.90;;;;;;6133856;29;20047;-79
2023/05/08 21:53:58;;;;;;;15.85;10.48;;;17.50;99.90;;;;;;6139020;29;20054;-76
2023/05/08 21:56:59;;;;;;;13.13;9.80;;;17.40;99.90;;;;;;6138836;29;20058;-76
2023/05/08 22:00:01;;;;;;;18.40;11.00;;;17.50;99.90;;;;;;6137489;29;20051;-76
